Randolph Air Force Base
KRND : now visible

Airfield :











YOU CAN JOIN US ON...

 
LOGIN :

Register | Disclaimer

   EN    FR    IT 

 









Legend :    VFR   Marginal VFR   IFR   Intensive IFR   Very Intensive IFR
Visi :
Ceiling :
>= 8 km
>= 3000ft
5 to 8 km
1000 to 3000 ft
1500m to 5 km
500 to 1000 ft
800 to 1500m
200 to 500 ft
< 800m
< 200 ft
Symbols :   Thunderstorms  Fog  Heavy snow  Heavy precipitations  Wind > 20 kt






- Airport Elevation : 761 ft


KRND - Randolph Air Force Base

CURRENT METAR :
  • 201636Z 18008KT 10SM BKN024 BKN030 27/21 A3001 RMK AO2A SLP155

EXPIRED METARs :
  • 201556Z 17012KT 10SM BKN021 BKN028 BKN037 27/21 A3002 RMK AO2A CIG 021V037 SLP158 T02690209
  • 201540Z 18011KT 10SM FEW023 SCT030 BKN037 27/21 A3002 RMK AO2A SLP158
  • 201530Z 17010KT 10SM FEW015 BKN026 BKN033 26/21 A3002 RMK AO2A CIG 026V031 CIG 024 RWY15R CIG 015 RWY33R SLP158
  • 201456Z 16011KT 10SM SCT013 BKN017 26/22 A3002 RMK AO2A SCT013 V BKN SLP158 T02570218 52012
  • 201425Z 15011KT 10SM BKN010 BKN015 BKN022 25/22 A3001 RMK AO2A BKN010 V SCT SLP155
  • 201356Z 16009KT 10SM SCT010 BKN017 BKN022 24/22 A3001 RMK AO2A SCT010 V BKN SLP155 T02430222

TAF TAF KRND
Valid from the 20 at 16:00 until the 21 at 22:00 UTC


201600Z 2016/2122 16010G15KT 9999 BKN025 BKN035 QNH2999INS
BECMG 2016/2017 16010G15KT 9999 SCT025 BKN035 QNH2988INS
BECMG 2101/2102 15009KT 9999 SCT030 QNH2990INS
BECMG 2108/2109 14006KT 9999 BKN009 QNH2992INS
TEMPO 2111/2113 3200 BR OVC004
BECMG 2115/2116 15009KT 9999 FEW015 BKN030 QNH2990INS TX32/2020Z TN22/2112Z
KZHU FIR / North America



MET'MAP, your aeronautical weather chart ! - Copyright ORBIFLY December 2007 - Disclaimer

ORBIFLY MET'MAP TEAM :

Programming & Development : Alexandra Zaïnal
Concept & original design : Baudouin d'Aumeries
Assistance for programming : Marc-Olivier Méhu
Technical & hardware support : Manuel Goepfert

Contact : metmap@orbifly.com




SOURCES & CREDITS :

   NOAA       Earth
Advisory